createdAt,value
2022-10-30T00:02:17.344Z,5.47
2022-10-30T00:06:45.428Z,4.90
2022-10-30T00:10:54.660Z,6.10
2022-10-30T00:15:04.140Z,6.40
2022-10-30T00:19:12.741Z,8.00
2022-10-30T00:23:21.473Z,6.43
2022-10-30T00:27:30.202Z,6.30
2022-10-30T00:31:38.728Z,6.10
2022-10-30T00:35:50.636Z,6.57
2022-10-30T00:39:59.773Z,6.00
2022-10-30T00:44:44.038Z,6.40
2022-10-30T00:49:13.489Z,6.23
2022-10-30T00:53:23.416Z,7.40
2022-10-30T00:57:32.555Z,5.87
2022-10-30T01:01:44.125Z,5.87
2022-10-30T01:06:13.694Z,6.20
2022-10-30T01:10:23.296Z,6.17
2022-10-30T01:14:32.773Z,5.50
2022-10-30T01:18:50.416Z,6.23
2022-10-30T01:23:04.781Z,6.30
2022-10-30T01:27:51.092Z,6.50
2022-10-30T01:32:17.945Z,6.17
2022-10-30T01:36:35.378Z,6.10
2022-10-30T01:40:48.104Z,6.30
2022-10-30T01:44:57.022Z,6.47
2022-10-30T01:49:40.587Z,5.80
2022-10-30T01:54:11.851Z,6.40
2022-10-30T01:58:29.244Z,6.83
2022-10-30T02:02:38.303Z,6.03
2022-10-30T02:07:06.506Z,6.50
2022-10-30T02:11:15.451Z,6.70
2022-10-30T02:15:24.407Z,6.70
2022-10-30T02:19:33.008Z,6.10
2022-10-30T02:23:41.600Z,6.35
2022-10-30T02:27:50.367Z,7.00
2022-10-30T02:31:58.996Z,6.03
2022-10-30T02:36:08.004Z,6.10
2022-10-30T02:40:17.523Z,6.33
2022-10-30T02:44:26.079Z,6.83
2022-10-30T02:48:35.865Z,6.37
2022-10-30T02:52:44.392Z,6.03
2022-10-30T02:56:53.227Z,5.87
2022-10-30T03:01:13.749Z,7.70
2022-10-30T03:05:22.464Z,6.70
2022-10-30T03:09:30.993Z,6.37
2022-10-30T03:13:43.612Z,5.93
2022-10-30T03:17:52.845Z,7.63
2022-10-30T03:22:01.692Z,6.83
2022-10-30T03:26:12.024Z,7.53
2022-10-30T03:30:22.326Z,6.90
2022-10-30T03:34:30.882Z,7.03
2022-10-30T03:38:50.091Z,7.35
2022-10-30T03:42:58.932Z,7.17
2022-10-30T03:47:27.358Z,6.47
2022-10-30T03:51:35.881Z,7.70
2022-10-30T03:55:45.465Z,6.17
2022-10-30T03:59:54.078Z,6.30
2022-10-30T04:04:02.690Z,6.30
2022-10-30T04:08:15.547Z,7.87
2022-10-30T04:12:24.107Z,7.10
2022-10-30T04:16:33.811Z,9.10
2022-10-30T04:20:42.736Z,6.73
2022-10-30T04:24:51.379Z,7.50
2022-10-30T04:28:59.958Z,6.57
2022-10-30T04:33:28.734Z,6.87
2022-10-30T04:37:37.424Z,7.17
2022-10-30T04:41:46.009Z,6.07
2022-10-30T04:45:55.500Z,6.60
2022-10-30T04:50:04.742Z,6.40
2022-10-30T04:54:13.377Z,5.93
2022-10-30T04:58:22.003Z,6.30
2022-10-30T05:02:30.717Z,6.03
2022-10-30T05:06:39.814Z,6.13
2022-10-30T05:10:48.500Z,6.63
2022-10-30T05:14:57.131Z,7.10
2022-10-30T05:19:05.641Z,6.40
2022-10-30T05:23:14.293Z,6.57
2022-10-30T05:27:22.913Z,6.00
2022-10-30T05:31:31.439Z,6.33
2022-10-30T05:35:40.322Z,5.93
2022-10-30T05:39:50.911Z,6.90
2022-10-30T05:44:34.287Z,6.83
2022-10-30T05:48:30.120Z,8.23
2022-10-30T05:52:50.859Z,7.40
2022-10-30T05:56:59.462Z,8.40
2022-10-30T06:01:09.113Z,7.40
2022-10-30T06:05:18.461Z,7.33
2022-10-30T06:09:27.064Z,7.07
2022-10-30T06:13:35.701Z,6.80
2022-10-30T06:17:44.261Z,8.50
2022-10-30T06:21:54.479Z,7.23
2022-10-30T06:26:03.131Z,7.10
2022-10-30T06:30:12.438Z,8.70
2022-10-30T06:34:21.106Z,6.90
2022-10-30T06:38:49.091Z,7.50
2022-10-30T06:42:58.612Z,6.90
2022-10-30T06:47:07.575Z,7.37
2022-10-30T06:51:17.629Z,6.93
2022-10-30T06:55:26.228Z,8.43
2022-10-30T06:59:54.152Z,7.80
2022-10-30T07:04:03.144Z,6.77
2022-10-30T07:08:12.251Z,7.17
2022-10-30T07:12:40.207Z,7.83
2022-10-30T07:16:48.835Z,8.57
2022-10-30T07:20:57.667Z,8.53
2022-10-30T07:25:06.883Z,9.23
2022-10-30T07:29:15.640Z,6.97
2022-10-30T07:33:24.278Z,6.97
2022-10-30T07:37:32.898Z,8.43
2022-10-30T07:41:45.942Z,6.97
2022-10-30T07:45:51.795Z,7.70
2022-10-30T07:50:00.423Z,7.57
2022-10-30T07:54:08.980Z,7.60
2022-10-30T07:58:17.703Z,7.03
2022-10-30T08:02:26.481Z,7.60
2022-10-30T08:06:35.554Z,8.10
2022-10-30T08:10:44.180Z,7.23
2022-10-30T08:15:12.469Z,6.00
2022-10-30T08:19:21.099Z,8.20
2022-10-30T08:23:29.625Z,6.27
2022-10-30T08:27:38.183Z,7.60
2022-10-30T08:31:51.799Z,7.50
2022-10-30T08:36:02.141Z,6.67
2022-10-30T08:40:30.367Z,6.50
2022-10-30T08:44:58.341Z,8.07
2022-10-30T08:49:06.965Z,6.90
2022-10-30T08:53:16.953Z,7.07
2022-10-30T08:57:25.662Z,7.67
2022-10-30T09:01:34.307Z,7.60
2022-10-30T09:05:43.017Z,7.43
2022-10-30T09:09:51.575Z,6.10
2022-10-30T09:14:00.217Z,7.27
2022-10-30T09:18:09.724Z,8.40
2022-10-30T09:22:18.965Z,7.23
2022-10-30T09:26:27.491Z,6.50
2022-10-30T09:30:36.046Z,6.47
2022-10-30T09:34:55.264Z,6.40
2022-10-30T09:39:03.924Z,7.33
2022-10-30T09:43:49.212Z,6.40
2022-10-30T09:48:22.008Z,6.70
2022-10-30T09:52:33.591Z,6.40
2022-10-30T09:56:47.968Z,6.50
2022-10-30T10:01:19.322Z,6.80
2022-10-30T10:05:45.904Z,6.90
2022-10-30T10:09:57.755Z,6.87
2022-10-30T10:14:09.412Z,7.90
2022-10-30T10:18:29.706Z,7.30
2022-10-30T10:22:41.349Z,7.27
2022-10-30T10:27:10.290Z,5.80
2022-10-30T10:31:33.777Z,5.63
2022-10-30T10:35:54.654Z,6.13
2022-10-30T10:40:18.048Z,6.40
2022-10-30T10:44:45.016Z,5.80
2022-10-30T10:49:16.175Z,5.87
2022-10-30T10:53:28.527Z,6.70
2022-10-30T10:57:40.488Z,6.20
2022-10-30T11:02:01.220Z,9.00
2022-10-30T11:06:16.139Z,6.00
2022-10-30T11:10:26.355Z,6.50
2022-10-30T11:14:34.917Z,6.17
2022-10-30T11:18:44.833Z,5.50
2022-10-30T11:22:53.460Z,5.70
2022-10-30T11:27:20.457Z,5.43
2022-10-30T11:31:38.576Z,5.93
2022-10-30T11:35:47.205Z,5.23
2022-10-30T11:40:14.270Z,6.00
2022-10-30T11:44:25.357Z,6.43
2022-10-30T11:48:35.312Z,6.43
2022-10-30T11:52:45.285Z,5.90
2022-10-30T11:56:54.216Z,5.17
2022-10-30T12:01:06.018Z,5.27
2022-10-30T12:05:30.000Z,5.87
2022-10-30T12:09:47.447Z,5.33
2022-10-30T12:14:19.830Z,5.83
2022-10-30T12:22:38.865Z,5.23
2022-10-30T12:26:50.378Z,5.50
2022-10-30T12:31:08.158Z,4.93
2022-10-30T12:35:51.605Z,5.00
2022-10-30T12:40:19.691Z,6.00
2022-10-30T12:44:40.195Z,4.97
2022-10-30T12:48:54.867Z,5.07
2022-10-30T12:53:24.702Z,5.27
2022-10-30T12:57:51.446Z,5.85
2022-10-30T13:02:36.533Z,6.33
2022-10-30T13:06:51.220Z,5.23
2022-10-30T13:11:30.493Z,5.57
2022-10-30T13:15:44.610Z,6.50
2022-10-30T13:19:53.158Z,5.33
2022-10-30T13:24:04.807Z,5.83
2022-10-30T13:28:16.454Z,6.47
2022-10-30T13:32:40.395Z,5.40
2022-10-30T13:36:54.840Z,5.67
2022-10-30T13:41:38.301Z,6.20
2022-10-30T13:46:08.259Z,8.23
2022-10-30T13:50:40.991Z,5.90
2022-10-30T13:55:04.640Z,5.80
2022-10-30T13:59:29.340Z,5.20
2022-10-30T14:04:12.577Z,5.37
2022-10-30T14:08:43.733Z,4.83
2022-10-30T14:13:01.928Z,5.97
2022-10-30T14:17:30.587Z,4.77
2022-10-30T14:21:44.440Z,6.07
2022-10-30T14:26:08.425Z,5.10
2022-10-30T14:30:21.428Z,6.53
2022-10-30T14:34:45.856Z,5.70
2022-10-30T14:39:12.793Z,6.17
2022-10-30T14:43:49.090Z,5.80
2022-10-30T14:48:21.794Z,5.70
2022-10-30T14:52:36.244Z,6.00
2022-10-30T14:56:54.148Z,4.97
2022-10-30T15:01:11.754Z,5.40
2022-10-30T15:05:40.251Z,5.70
2022-10-30T15:10:01.044Z,7.43
2022-10-30T15:14:20.947Z,5.30
2022-10-30T15:18:30.583Z,5.90
2022-10-30T15:22:37.359Z,5.67
2022-10-30T15:26:48.963Z,5.60
2022-10-30T15:31:22.651Z,6.70
2022-10-30T15:35:50.501Z,5.37
2022-10-30T15:40:19.909Z,5.37
2022-10-30T15:44:31.458Z,5.43
2022-10-30T15:48:42.565Z,5.50
2022-10-30T15:52:53.084Z,5.60
2022-10-30T15:57:42.673Z,5.20
2022-10-30T16:01:15.556Z,4.90
2022-10-30T16:05:25.100Z,5.63
2022-10-30T16:09:57.065Z,5.97
2022-10-30T16:14:11.765Z,6.50
2022-10-30T16:18:35.800Z,5.90
2022-10-30T16:22:44.434Z,5.47
2022-10-30T16:27:05.249Z,5.70
2022-10-30T16:31:15.913Z,5.77
2022-10-30T16:35:26.093Z,7.03
2022-10-30T16:39:36.443Z,5.83
2022-10-30T16:43:49.164Z,6.90
2022-10-30T16:48:08.371Z,7.67
2022-10-30T16:52:15.193Z,7.90
2022-10-30T16:56:29.703Z,8.67
2022-10-30T17:00:40.204Z,8.43
2022-10-30T17:04:55.340Z,9.00
2022-10-30T17:09:03.648Z,8.80
2022-10-30T17:13:39.817Z,7.90
2022-10-30T17:17:51.780Z,8.17
2022-10-30T17:22:04.392Z,7.10
2022-10-30T17:26:14.357Z,7.30
2022-10-30T17:30:38.174Z,7.87
2022-10-30T17:34:47.381Z,7.90
2022-10-30T17:38:56.009Z,7.90
2022-10-30T17:43:04.597Z,6.33
2022-10-30T17:47:20.313Z,6.87
2022-10-30T17:51:29.476Z,8.63
2022-10-30T17:55:39.329Z,6.83
2022-10-30T17:59:48.108Z,7.50
2022-10-30T18:03:57.027Z,7.70
2022-10-30T18:08:05.935Z,7.20
2022-10-30T18:12:16.748Z,8.70
2022-10-30T18:16:44.654Z,7.13
2022-10-30T18:20:53.257Z,8.60
2022-10-30T18:25:02.419Z,6.77
2022-10-30T18:29:11.854Z,6.47
2022-10-30T18:33:21.437Z,7.00
2022-10-30T18:37:30.024Z,8.10
2022-10-30T18:41:41.212Z,8.80
2022-10-30T18:45:49.843Z,8.37
2022-10-30T18:49:58.370Z,7.90
2022-10-30T18:54:17.413Z,8.10
2022-10-30T18:58:26.002Z,7.13
2022-10-30T19:02:34.643Z,7.50
2022-10-30T19:06:43.331Z,8.30
2022-10-30T19:15:02.127Z,8.00
2022-10-30T19:19:10.750Z,8.70
2022-10-30T19:23:25.078Z,8.23
2022-10-30T19:27:33.742Z,7.43
2022-10-30T19:31:42.369Z,8.40
2022-10-30T19:35:56.432Z,9.00
2022-10-30T19:40:27.710Z,12.70
2022-10-30T19:44:56.098Z,16.77
2022-10-30T19:49:21.192Z,12.40
2022-10-30T19:53:29.821Z,11.07
2022-10-30T19:57:58.732Z,9.23
2022-10-30T20:02:07.712Z,8.37
2022-10-30T20:06:16.662Z,10.07
2022-10-30T20:10:25.369Z,9.50
2022-10-30T20:14:34.060Z,9.77
2022-10-30T20:18:42.588Z,9.20
2022-10-30T20:22:51.098Z,8.37
2022-10-30T20:26:59.741Z,8.30
2022-10-30T20:31:09.467Z,8.60
2022-10-30T20:35:19.859Z,8.27
2022-10-30T20:39:28.494Z,8.90
2022-10-30T20:43:40.911Z,8.77
2022-10-30T20:47:49.963Z,8.40
2022-10-30T20:51:58.578Z,8.50
2022-10-30T20:56:07.412Z,8.70
2022-10-30T21:00:16.423Z,9.10
2022-10-30T21:04:25.002Z,10.60
2022-10-30T21:08:35.130Z,10.13
2022-10-30T21:12:43.774Z,9.00
2022-10-30T21:16:52.411Z,9.60
2022-10-30T21:21:05.635Z,10.10
2022-10-30T21:25:14.366Z,9.80
2022-10-30T21:29:22.953Z,8.57
2022-10-30T21:33:32.771Z,9.13
2022-10-30T21:37:42.402Z,8.93
2022-10-30T21:42:10.285Z,8.23
2022-10-30T21:46:19.452Z,8.30
2022-10-30T21:50:28.056Z,8.93
2022-10-30T21:54:36.680Z,8.70
2022-10-30T21:58:45.975Z,8.80
2022-10-30T22:02:56.402Z,9.03
2022-10-30T22:07:05.025Z,8.23
2022-10-30T22:11:14.066Z,7.30
2022-10-30T22:15:22.918Z,8.27
2022-10-30T22:19:31.529Z,7.60
2022-10-30T22:23:41.382Z,7.60
2022-10-30T22:28:09.739Z,7.97
2022-10-30T22:32:18.506Z,8.70
2022-10-30T22:36:29.697Z,7.10
2022-10-30T22:40:38.360Z,7.90
2022-10-30T22:44:46.955Z,7.97
2022-10-30T22:48:56.435Z,7.70
2022-10-30T22:53:05.001Z,7.90
2022-10-30T22:57:13.575Z,7.70
2022-10-30T23:01:27.932Z,7.17
2022-10-30T23:05:36.534Z,7.47
2022-10-30T23:09:45.156Z,7.37
2022-10-30T23:13:54.144Z,7.47
2022-10-30T23:18:02.906Z,7.30
2022-10-30T23:22:11.676Z,7.80
2022-10-30T23:26:26.608Z,7.63
2022-10-30T23:30:36.124Z,8.10
2022-10-30T23:35:15.891Z,7.07
2022-10-30T23:39:17.422Z,8.07
2022-10-30T23:43:45.280Z,8.07
2022-10-30T23:47:53.830Z,6.50
2022-10-30T23:52:02.458Z,8.27
2022-10-30T23:56:11.291Z,7.20
